Time,TemperatureF,DewpointF,PressureIn,WindDirection,WindDirectionDegrees,WindSpeedMPH,WindSpeedGustMPH,Humidity,HourlyPrecipIn,Conditions,Clouds,dailyrainin,SoftwareType,DateUTC
2014-01-09 00:01:00,19.6,16.2,30.41,SW,219,6.9,10.1,86,0.00,,,0.00,meteobridge,2014-01-09 05:01:00,
2014-01-09 00:03:00,19.8,16.3,30.42,SW,222,6.9,6.9,86,0.00,,,0.00,meteobridge,2014-01-09 05:03:00,
2014-01-09 00:05:00,19.8,16.3,30.41,SW,235,4.0,6.9,86,0.00,,,0.00,meteobridge,2014-01-09 05:05:00,
2014-01-09 00:09:00,19.9,16.2,30.42,SW,227,2.9,6.0,85,0.00,,,0.00,meteobridge,2014-01-09 05:09:00,
2014-01-09 00:15:00,20.1,16.3,30.42,SW,234,6.9,12.1,85,0.00,,,0.00,meteobridge,2014-01-09 05:15:00,
2014-01-09 00:21:00,20.1,16.0,30.42,WSW,256,4.9,8.1,84,0.00,,,0.00,meteobridge,2014-01-09 05:21:00,
2014-01-09 00:27:00,20.3,16.0,30.42,WSW,257,11.0,11.0,83,0.00,,,0.00,meteobridge,2014-01-09 05:27:00,
2014-01-09 00:29:00,20.3,16.0,30.42,WSW,256,8.1,8.9,83,0.00,,,0.00,meteobridge,2014-01-09 05:29:00,
2014-01-09 00:35:00,20.5,15.8,30.42,WSW,257,8.9,14.1,82,0.00,,,0.00,meteobridge,2014-01-09 05:35:00,
2014-01-09 00:41:00,20.7,15.8,30.42,West,265,10.1,16.1,81,0.00,,,0.00,meteobridge,2014-01-09 05:41:00,
2014-01-09 00:47:00,20.5,15.6,30.42,West,261,8.9,10.1,81,0.00,,,0.00,meteobridge,2014-01-09 05:47:00,
2014-01-09 00:53:00,20.1,15.4,30.42,West,261,11.0,12.1,82,0.00,,,0.00,meteobridge,2014-01-09 05:53:00,
2014-01-09 00:59:00,19.9,15.3,30.42,West,271,6.9,14.1,82,0.00,,,0.00,meteobridge,2014-01-09 05:59:00,
2014-01-09 01:05:00,19.9,15.3,30.43,West,265,6.9,15.0,82,0.00,,,0.00,meteobridge,2014-01-09 06:05:00,
2014-01-09 01:11:00,20.1,15.4,30.43,WSW,257,10.1,13.0,82,0.00,,,0.00,meteobridge,2014-01-09 06:11:00,
2014-01-09 01:17:00,20.1,15.4,30.43,WSW,238,4.9,14.1,82,0.00,,,0.00,meteobridge,2014-01-09 06:17:00,
2014-01-09 01:23:00,19.9,15.3,30.43,WSW,238,11.0,14.1,82,0.00,,,0.00,meteobridge,2014-01-09 06:23:00,
2014-01-09 01:29:00,19.9,15.3,30.43,SW,226,6.0,13.0,82,0.00,,,0.00,meteobridge,2014-01-09 06:29:00,
2014-01-09 01:35:00,19.8,15.1,30.44,WSW,240,6.9,11.0,82,0.00,,,0.00,meteobridge,2014-01-09 06:35:00,
2014-01-09 01:41:00,19.8,15.1,30.44,West,268,8.9,12.1,82,0.00,,,0.00,meteobridge,2014-01-09 06:41:00,
2014-01-09 01:47:00,19.6,14.9,30.44,SW,221,4.0,11.0,82,0.00,,,0.00,meteobridge,2014-01-09 06:47:00,
2014-01-09 01:53:00,19.6,14.9,30.44,SW,227,11.0,12.1,82,0.00,,,0.00,meteobridge,2014-01-09 06:53:00,
2014-01-09 01:59:00,19.6,14.7,30.45,SW,220,8.9,14.1,81,0.00,,,0.00,meteobridge,2014-01-09 06:59:00,
2014-01-09 02:05:00,19.6,14.7,30.45,SW,220,8.1,13.0,81,0.00,,,0.00,meteobridge,2014-01-09 07:05:00,
2014-01-09 02:11:00,19.6,14.9,30.45,SW,218,11.0,13.0,82,0.00,,,0.00,meteobridge,2014-01-09 07:11:00,
2014-01-09 02:17:00,19.6,14.9,30.45,SW,215,4.0,10.1,82,0.00,,,0.00,meteobridge,2014-01-09 07:17:00,
2014-01-09 02:24:00,19.6,14.7,30.45,SW,233,6.0,12.1,81,0.00,,,0.00,meteobridge,2014-01-09 07:24:00,
2014-01-09 02:30:00,19.6,14.7,30.45,WSW,237,8.1,16.1,81,0.00,,,0.00,meteobridge,2014-01-09 07:30:00,
2014-01-09 02:36:00,19.8,14.9,30.46,SW,231,2.9,10.1,81,0.00,,,0.00,meteobridge,2014-01-09 07:36:00,
2014-01-09 02:42:00,19.8,14.9,30.46,SW,235,13.0,13.0,81,0.00,,,0.00,meteobridge,2014-01-09 07:42:00,
2014-01-09 02:48:00,19.6,14.7,30.47,WSW,240,4.9,11.0,81,0.00,,,0.00,meteobridge,2014-01-09 07:48:00,
2014-01-09 02:54:00,19.4,14.7,30.47,SW,219,4.9,11.0,82,0.00,,,0.00,meteobridge,2014-01-09 07:54:00,
2014-01-09 03:00:00,19.4,14.7,30.47,SW,225,4.0,11.0,82,0.00,,,0.00,meteobridge,2014-01-09 08:00:00,
2014-01-09 03:06:00,19.2,14.7,30.47,SW,230,6.9,11.0,82,0.00,,,0.00,meteobridge,2014-01-09 08:06:00,
2014-01-09 03:12:00,19.0,14.5,30.47,SW,219,4.0,6.9,82,0.00,,,0.00,meteobridge,2014-01-09 08:12:00,
2014-01-09 03:18:00,19.0,14.5,30.48,SW,223,4.0,8.1,82,0.00,,,0.00,meteobridge,2014-01-09 08:18:00,
2014-01-09 03:24:00,19.0,14.5,30.48,SW,235,4.0,8.9,82,0.00,,,0.00,meteobridge,2014-01-09 08:24:00,
2014-01-09 03:30:00,19.0,14.5,30.48,SW,225,6.9,11.0,82,0.00,,,0.00,meteobridge,2014-01-09 08:30:00,
2014-01-09 03:36:00,19.0,14.2,30.48,SW,234,2.9,8.9,81,0.00,,,0.00,meteobridge,2014-01-09 08:36:00,
2014-01-09 03:42:00,19.0,14.2,30.48,SW,230,6.0,8.9,81,0.00,,,0.00,meteobridge,2014-01-09 08:42:00,
2014-01-09 03:48:00,19.0,14.5,30.48,SW,217,4.9,8.9,82,0.00,,,0.00,meteobridge,2014-01-09 08:48:00,
2014-01-09 03:54:00,19.0,14.2,30.49,WSW,242,2.0,6.9,81,0.00,,,0.00,meteobridge,2014-01-09 08:54:00,
2014-01-09 04:00:00,19.0,14.2,30.48,SW,232,4.9,8.9,81,0.00,,,0.00,meteobridge,2014-01-09 09:00:00,
2014-01-09 04:06:00,18.9,14.4,30.49,SW,234,2.9,8.9,82,0.00,,,0.00,meteobridge,2014-01-09 09:06:00,
2014-01-09 04:12:00,18.9,14.4,30.49,SW,236,6.0,8.9,82,0.00,,,0.00,meteobridge,2014-01-09 09:12:00,
2014-01-09 04:18:00,18.7,14.2,30.49,South,190,4.9,10.1,82,0.00,,,0.00,meteobridge,2014-01-09 09:18:00,
2014-01-09 04:24:00,18.3,13.8,30.49,SW,224,2.0,6.0,82,0.00,,,0.00,meteobridge,2014-01-09 09:24:00,
2014-01-09 04:30:00,18.0,13.5,30.50,SW,214,4.9,8.1,82,0.00,,,0.00,meteobridge,2014-01-09 09:30:00,
2014-01-09 04:36:00,17.8,13.3,30.50,South,182,6.0,6.0,82,0.00,,,0.00,meteobridge,2014-01-09 09:36:00,
2014-01-09 04:42:00,17.6,13.1,30.50,SSW,194,4.0,8.1,82,0.00,,,0.00,meteobridge,2014-01-09 09:42:00,
2014-01-09 04:48:00,17.4,13.1,30.50,SSW,196,2.0,8.1,83,0.00,,,0.00,meteobridge,2014-01-09 09:48:00,
2014-01-09 04:54:00,17.4,13.1,30.50,SSW,202,4.9,6.9,83,0.00,,,0.00,meteobridge,2014-01-09 09:54:00,
2014-01-09 05:00:00,17.4,13.1,30.50,SW,225,2.0,8.1,83,0.00,,,0.00,meteobridge,2014-01-09 10:00:00,
2014-01-09 05:07:00,17.2,12.9,30.50,SSW,205,0.9,6.0,83,0.00,,,0.00,meteobridge,2014-01-09 10:07:00,
2014-01-09 05:13:00,17.2,12.9,30.50,SW,215,2.9,6.9,83,0.00,,,0.00,meteobridge,2014-01-09 10:13:00,
2014-01-09 05:19:00,17.1,12.7,30.51,SW,224,2.0,6.0,83,0.00,,,0.00,meteobridge,2014-01-09 10:19:00,
2014-01-09 05:25:00,17.1,12.7,30.51,SW,221,4.9,8.9,83,0.00,,,0.00,meteobridge,2014-01-09 10:25:00,
2014-01-09 05:31:00,17.1,13.1,30.51,South,190,2.0,6.0,84,0.00,,,0.00,meteobridge,2014-01-09 10:31:00,
2014-01-09 05:37:00,17.1,13.1,30.51,SSE,156,0.9,6.0,84,0.00,,,0.00,meteobridge,2014-01-09 10:37:00,
2014-01-09 05:43:00,17.1,13.1,30.52,SSW,205,4.9,4.9,84,0.00,,,0.00,meteobridge,2014-01-09 10:43:00,
2014-01-09 05:49:00,17.1,13.1,30.52,SSW,211,4.0,6.0,84,0.00,,,0.00,meteobridge,2014-01-09 10:49:00,
2014-01-09 05:55:00,17.1,13.1,30.52,South,188,4.9,6.0,84,0.00,,,0.00,meteobridge,2014-01-09 10:55:00,
2014-01-09 06:01:00,17.1,13.1,30.53,SSW,207,2.0,4.9,84,0.00,,,0.00,meteobridge,2014-01-09 11:01:00,
2014-01-09 06:07:00,17.1,13.1,30.53,South,190,4.0,6.9,84,0.00,,,0.00,meteobridge,2014-01-09 11:07:00,
2014-01-09 06:13:00,17.1,13.1,30.53,SSE,161,2.0,4.9,84,0.00,,,0.00,meteobridge,2014-01-09 11:13:00,
2014-01-09 06:19:00,17.1,13.1,30.53,SW,218,2.0,6.9,84,0.00,,,0.00,meteobridge,2014-01-09 11:19:00,
2014-01-09 06:25:00,17.1,13.1,30.53,SSW,207,4.9,6.0,84,0.00,,,0.00,meteobridge,2014-01-09 11:25:00,
2014-01-09 06:31:00,17.1,13.3,30.54,South,183,0.0,8.1,85,0.00,,,0.00,meteobridge,2014-01-09 11:31:00,
2014-01-09 06:37:00,17.1,13.1,30.54,South,189,4.0,8.1,84,0.00,,,0.00,meteobridge,2014-01-09 11:37:00,
2014-01-09 06:43:00,17.1,13.3,30.54,SE,145,0.9,6.9,85,0.00,,,0.00,meteobridge,2014-01-09 11:43:00,
2014-01-09 06:49:00,17.2,13.5,30.55,SSW,211,0.9,6.9,85,0.00,,,0.00,meteobridge,2014-01-09 11:49:00,
2014-01-09 06:56:00,17.2,13.3,30.55,SW,234,2.0,8.1,84,0.00,,,0.00,meteobridge,2014-01-09 11:56:00,
2014-01-09 07:02:00,17.2,13.3,30.55,South,187,4.9,6.0,84,0.00,,,0.00,meteobridge,2014-01-09 12:02:00,
2014-01-09 07:08:00,17.2,13.3,30.55,SSW,212,4.0,6.0,84,0.00,,,0.00,meteobridge,2014-01-09 12:08:00,
2014-01-09 07:14:00,17.2,13.3,30.55,SSE,152,2.0,8.1,84,0.00,,,0.00,meteobridge,2014-01-09 12:14:00,
2014-01-09 07:20:00,17.1,13.1,30.55,South,173,4.0,4.9,84,0.00,,,0.00,meteobridge,2014-01-09 12:20:00,
2014-01-09 07:26:00,17.2,13.3,30.55,SSE,160,2.0,6.9,84,0.00,,,0.00,meteobridge,2014-01-09 12:26:00,
2014-01-09 07:32:00,17.2,13.3,30.55,South,191,2.0,4.9,84,0.00,,,0.00,meteobridge,2014-01-09 12:32:00,
2014-01-09 07:38:00,17.2,13.3,30.55,South,172,0.9,6.0,84,0.00,,,0.00,meteobridge,2014-01-09 12:38:00,
2014-01-09 07:44:00,17.2,13.3,30.55,SSE,154,0.9,8.9,84,0.00,,,0.00,meteobridge,2014-01-09 12:44:00,
2014-01-09 07:50:00,17.2,13.3,30.55,SW,234,6.0,10.1,84,0.00,,,0.00,meteobridge,2014-01-09 12:50:00,
2014-01-09 07:56:00,17.2,13.3,30.55,South,169,4.9,6.9,84,0.00,,,0.00,meteobridge,2014-01-09 12:56:00,
2014-01-09 08:02:00,17.2,13.3,30.56,SSW,194,0.0,6.0,84,0.00,,,0.00,meteobridge,2014-01-09 13:02:00,
2014-01-09 08:08:00,17.4,13.5,30.56,SSW,207,0.9,6.9,84,0.00,,,0.00,meteobridge,2014-01-09 13:08:00,
2014-01-09 08:15:00,17.6,13.6,30.56,SSE,168,6.0,6.0,84,0.00,,,0.00,meteobridge,2014-01-09 13:15:00,
2014-01-09 08:21:00,17.6,13.6,30.57,SSE,163,4.0,4.0,84,0.00,,,0.00,meteobridge,2014-01-09 13:21:00,
2014-01-09 08:27:00,17.6,13.6,30.57,South,178,2.0,6.0,84,0.00,,,0.00,meteobridge,2014-01-09 13:27:00,
2014-01-09 08:33:00,17.8,13.8,30.58,South,186,2.0,6.9,84,0.00,,,0.00,meteobridge,2014-01-09 13:33:00,
2014-01-09 08:39:00,18.0,14.0,30.58,South,184,0.0,6.0,84,0.00,,,0.00,meteobridge,2014-01-09 13:39:00,
2014-01-09 08:45:00,18.0,14.0,30.58,South,180,2.0,4.9,84,0.00,,,0.00,meteobridge,2014-01-09 13:45:00,
2014-01-09 08:51:00,18.1,14.2,30.58,SSW,207,0.0,6.9,84,0.00,,,0.00,meteobridge,2014-01-09 13:51:00,
2014-01-09 08:57:00,18.1,13.8,30.59,SSW,201,0.0,6.0,83,0.00,,,0.00,meteobridge,2014-01-09 13:57:00,
2014-01-09 09:03:00,18.3,14.0,30.59,SSE,156,0.9,6.0,83,0.00,,,0.00,meteobridge,2014-01-09 14:03:00,
2014-01-09 09:09:00,18.5,14.2,30.59,SSW,213,2.0,4.0,83,0.00,,,0.00,meteobridge,2014-01-09 14:09:00,
2014-01-09 09:15:00,18.9,14.5,30.59,SSW,192,0.9,4.9,83,0.00,,,0.00,meteobridge,2014-01-09 14:15:00,
2014-01-09 09:17:00,18.9,14.5,30.59,SW,229,2.9,8.1,83,0.00,,,0.00,meteobridge,2014-01-09 14:17:00,
2014-01-09 09:23:00,19.0,14.7,30.59,South,179,0.0,6.0,83,0.00,,,0.00,meteobridge,2014-01-09 14:23:00,
2014-01-09 09:29:00,19.2,14.7,30.59,SE,136,6.0,6.0,82,0.00,,,0.00,meteobridge,2014-01-09 14:29:00,
2014-01-09 09:35:00,19.2,14.7,30.60,WSW,248,2.0,6.9,82,0.00,,,0.00,meteobridge,2014-01-09 14:35:00,
2014-01-09 09:41:00,19.6,14.7,30.60,SW,229,4.0,8.9,81,0.00,,,0.00,meteobridge,2014-01-09 14:41:00,
2014-01-09 09:48:00,19.9,15.3,30.60,SW,229,2.9,8.1,82,0.00,,,0.00,meteobridge,2014-01-09 14:48:00,
2014-01-09 09:54:00,20.3,15.4,30.60,SSE,168,2.0,8.1,81,0.00,,,0.00,meteobridge,2014-01-09 14:54:00,
2014-01-09 10:00:00,20.7,15.4,30.61,SW,224,0.0,8.1,80,0.00,,,0.00,meteobridge,2014-01-09 15:00:00,
2014-01-09 10:06:00,20.8,15.1,30.61,SW,226,6.9,11.0,78,0.00,,,0.00,meteobridge,2014-01-09 15:06:00,
2014-01-09 10:12:00,21.4,15.6,30.61,SSW,195,0.0,8.1,78,0.00,,,0.00,meteobridge,2014-01-09 15:12:00,
2014-01-09 10:18:00,22.3,16.5,30.61,SSE,163,4.9,6.0,78,0.00,,,0.00,meteobridge,2014-01-09 15:18:00,
2014-01-09 10:24:00,23.4,16.9,30.61,SW,234,0.0,6.9,76,0.00,,,0.00,meteobridge,2014-01-09 15:24:00,
2014-01-09 10:30:00,24.1,16.7,30.61,South,177,4.0,8.1,73,0.00,,,0.00,meteobridge,2014-01-09 15:30:00,
2014-01-09 10:36:00,23.7,16.0,30.61,SSW,205,4.0,8.1,72,0.00,,,0.00,meteobridge,2014-01-09 15:36:00,
2014-01-09 10:42:00,23.4,15.4,30.61,South,182,0.9,6.9,71,0.00,,,0.00,meteobridge,2014-01-09 15:42:00,
2014-01-09 10:48:00,23.2,15.4,30.61,SSW,213,0.9,10.1,72,0.00,,,0.00,meteobridge,2014-01-09 15:48:00,
2014-01-09 10:54:00,23.2,15.4,30.61,WSW,244,8.9,8.9,72,0.00,,,0.00,meteobridge,2014-01-09 15:54:00,
2014-01-09 11:00:00,23.2,15.4,30.60,SSE,161,4.0,4.9,72,0.00,,,0.00,meteobridge,2014-01-09 16:00:00,
2014-01-09 11:06:00,23.7,16.0,30.61,South,172,8.1,8.9,72,0.00,,,0.00,meteobridge,2014-01-09 16:06:00,
2014-01-09 11:13:00,23.7,15.6,30.60,South,173,4.9,8.1,71,0.00,,,0.00,meteobridge,2014-01-09 16:13:00,
2014-01-09 11:19:00,23.9,16.2,30.60,South,172,6.0,6.0,72,0.00,,,0.00,meteobridge,2014-01-09 16:19:00,
2014-01-09 11:25:00,24.4,16.3,30.60,South,179,2.0,6.0,71,0.00,,,0.00,meteobridge,2014-01-09 16:25:00,
2014-01-09 11:31:00,24.6,16.2,30.60,SSW,192,4.9,6.0,70,0.00,,,0.00,meteobridge,2014-01-09 16:31:00,
2014-01-09 11:37:00,25.0,16.3,30.59,SSW,202,2.9,4.0,69,0.00,,,0.00,meteobridge,2014-01-09 16:37:00,
2014-01-09 11:43:00,24.6,17.8,30.59,SSW,200,0.9,6.0,75,0.00,,,0.00,meteobridge,2014-01-09 16:43:00,
2014-01-09 11:49:00,24.4,15.8,30.59,South,187,0.9,8.1,69,0.00,,,0.00,meteobridge,2014-01-09 16:49:00,
2014-01-09 11:57:00,25.2,16.2,30.58,SSW,196,0.0,4.9,68,0.00,,,0.00,meteobridge,2014-01-09 16:57:00,
2014-01-09 12:03:00,25.0,16.0,30.58,SSE,162,4.0,8.9,68,0.00,,,0.00,meteobridge,2014-01-09 17:03:00,
2014-01-09 12:11:00,24.6,15.3,30.58,SSW,200,2.0,6.9,67,0.00,,,0.00,meteobridge,2014-01-09 17:11:00,
2014-01-09 12:17:00,24.4,15.1,30.57,WSW,241,2.9,4.9,67,0.00,,,0.00,meteobridge,2014-01-09 17:17:00,
2014-01-09 12:24:00,24.1,14.7,30.57,South,184,2.0,6.0,67,0.00,,,0.00,meteobridge,2014-01-09 17:24:00,
2014-01-09 12:30:00,24.4,15.4,30.57,South,171,0.9,6.0,68,0.00,,,0.00,meteobridge,2014-01-09 17:30:00,
2014-01-09 12:38:00,25.2,16.2,30.56,SSW,203,0.0,8.1,68,0.00,,,0.00,meteobridge,2014-01-09 17:38:00,
2014-01-09 12:56:00,25.3,16.9,30.55,SSW,193,2.0,4.9,70,0.00,,,0.00,meteobridge,2014-01-09 17:56:00,
2014-01-09 13:12:00,25.2,16.3,30.54,SW,230,2.9,8.1,69,0.00,,,0.00,meteobridge,2014-01-09 18:12:00,
2014-01-09 13:18:00,25.5,17.1,30.54,South,188,0.0,4.0,70,0.00,,,0.00,meteobridge,2014-01-09 18:18:00,
2014-01-09 13:24:00,25.7,16.9,30.53,South,182,2.9,6.9,69,0.00,,,0.00,meteobridge,2014-01-09 18:24:00,
2014-01-09 13:30:00,25.5,16.5,30.53,SW,218,2.0,6.0,68,0.00,,,0.00,meteobridge,2014-01-09 18:30:00,
2014-01-09 13:37:00,25.5,16.7,30.53,SSE,159,4.0,6.9,69,0.00,,,0.00,meteobridge,2014-01-09 18:37:00,
2014-01-09 13:43:00,26.1,17.2,30.53,South,173,0.0,2.0,69,0.00,,,0.00,meteobridge,2014-01-09 18:43:00,
2014-01-09 13:49:00,26.2,17.1,30.53,South,184,2.9,4.9,68,0.00,,,0.00,meteobridge,2014-01-09 18:49:00,
2014-01-09 13:55:00,26.2,17.4,30.53,SSW,194,0.9,4.0,69,0.00,,,0.00,meteobridge,2014-01-09 18:55:00,
2014-01-09 14:01:00,26.8,17.2,30.52,SE,128,4.0,4.9,67,0.00,,,0.00,meteobridge,2014-01-09 19:01:00,
2014-01-09 14:07:00,26.1,16.7,30.52,SE,146,4.9,6.9,67,0.00,,,0.00,meteobridge,2014-01-09 19:07:00,
2014-01-09 14:15:00,25.9,16.7,30.51,SSE,151,2.0,4.9,68,0.00,,,0.00,meteobridge,2014-01-09 19:15:00,
2014-01-09 14:21:00,25.5,16.5,30.51,SE,140,0.0,2.0,68,0.00,,,0.00,meteobridge,2014-01-09 19:21:00,
2014-01-09 14:27:00,25.5,16.5,30.51,SSE,167,0.0,4.9,68,0.00,,,0.00,meteobridge,2014-01-09 19:27:00,
2014-01-09 14:34:00,26.8,17.2,30.51,SSE,167,0.9,0.9,67,0.00,,,0.00,meteobridge,2014-01-09 19:34:00,
2014-01-09 14:40:00,26.8,16.9,30.51,SSE,166,0.9,4.9,66,0.00,,,0.00,meteobridge,2014-01-09 19:40:00,
2014-01-09 14:46:00,26.2,16.5,30.50,SE,130,4.0,4.9,66,0.00,,,0.00,meteobridge,2014-01-09 19:46:00,
2014-01-09 14:52:00,25.7,16.3,30.50,SE,136,2.0,4.9,67,0.00,,,0.00,meteobridge,2014-01-09 19:52:00,
2014-01-09 14:59:00,25.9,16.7,30.50,SE,134,0.9,4.9,68,0.00,,,0.00,meteobridge,2014-01-09 19:59:00,
2014-01-09 15:07:00,25.9,16.7,30.50,SE,129,0.9,4.0,68,0.00,,,0.00,meteobridge,2014-01-09 20:07:00,
2014-01-09 15:13:00,25.5,16.2,30.50,SE,126,4.0,4.9,67,0.00,,,0.00,meteobridge,2014-01-09 20:13:00,
2014-01-09 15:19:00,25.2,16.2,30.50,ESE,111,2.0,4.9,68,0.00,,,0.00,meteobridge,2014-01-09 20:19:00,
2014-01-09 15:26:00,25.0,15.6,30.49,East,86,4.0,6.9,67,0.00,,,0.00,meteobridge,2014-01-09 20:26:00,
2014-01-09 15:32:00,25.0,15.6,30.50,East,94,2.0,6.0,67,0.00,,,0.00,meteobridge,2014-01-09 20:32:00,
2014-01-09 15:42:00,25.0,16.0,30.50,ESE,122,0.9,4.9,68,0.00,,,0.00,meteobridge,2014-01-09 20:42:00,
2014-01-09 15:50:00,24.8,15.8,30.49,SE,128,4.9,4.9,68,0.00,,,0.00,meteobridge,2014-01-09 20:50:00,
2014-01-09 15:56:00,24.6,16.0,30.49,SE,136,0.0,6.0,69,0.00,,,0.00,meteobridge,2014-01-09 20:56:00,
2014-01-09 16:02:00,24.3,16.0,30.49,SSE,148,0.9,4.0,70,0.00,,,0.00,meteobridge,2014-01-09 21:02:00,
2014-01-09 16:10:00,24.1,15.4,30.49,SSE,148,2.0,2.0,69,0.00,,,0.00,meteobridge,2014-01-09 21:10:00,
2014-01-09 16:16:00,24.3,15.3,30.49,East,98,0.9,4.9,68,0.00,,,0.00,meteobridge,2014-01-09 21:16:00,
2014-01-09 16:22:00,24.3,15.3,30.49,ESE,106,2.0,4.0,68,0.00,,,0.00,meteobridge,2014-01-09 21:22:00,
2014-01-09 16:29:00,24.1,15.1,30.49,ESE,118,4.0,4.9,68,0.00,,,0.00,meteobridge,2014-01-09 21:29:00,
2014-01-09 16:35:00,23.5,14.9,30.49,ESE,118,0.9,4.0,69,0.00,,,0.00,meteobridge,2014-01-09 21:35:00,
2014-01-09 16:41:00,23.4,15.1,30.49,ESE,114,0.0,2.0,70,0.00,,,0.00,meteobridge,2014-01-09 21:41:00,
2014-01-09 16:53:00,22.5,14.5,30.49,ESE,114,0.0,0.0,71,0.00,,,0.00,meteobridge,2014-01-09 21:53:00,
2014-01-09 17:00:00,22.1,14.2,30.49,ESE,114,0.0,0.9,71,0.00,,,0.00,meteobridge,2014-01-09 22:00:00,
2014-01-09 17:06:00,21.9,14.4,30.48,ESE,114,0.0,0.0,72,0.00,,,0.00,meteobridge,2014-01-09 22:06:00,
2014-01-09 17:12:00,21.9,14.4,30.49,ESE,113,0.0,0.0,72,0.00,,,0.00,meteobridge,2014-01-09 22:12:00,
2014-01-09 17:18:00,21.6,14.0,30.49,ESE,114,0.0,0.0,72,0.00,,,0.00,meteobridge,2014-01-09 22:18:00,
2014-01-09 17:22:00,21.6,14.0,30.48,ESE,113,0.0,0.0,72,0.00,,,0.00,meteobridge,2014-01-09 22:22:00,
2014-01-09 17:25:00,21.4,13.8,30.48,ESE,114,0.0,0.0,72,0.00,,,0.00,meteobridge,2014-01-09 22:25:00,
2014-01-09 17:31:00,21.4,14.0,30.49,ESE,114,0.0,0.0,73,0.00,,,0.00,meteobridge,2014-01-09 22:31:00,
2014-01-09 17:33:00,21.2,13.8,30.49,ESE,114,0.0,0.0,73,0.00,,,0.00,meteobridge,2014-01-09 22:33:00,
2014-01-09 17:37:00,21.0,13.8,30.49,ESE,114,0.0,0.0,73,0.00,,,0.00,meteobridge,2014-01-09 22:37:00,
2014-01-09 17:43:00,20.7,13.5,30.48,ESE,114,0.0,0.0,73,0.00,,,0.00,meteobridge,2014-01-09 22:43:00,
2014-01-09 17:49:00,19.9,12.9,30.48,ESE,114,0.0,0.0,74,0.00,,,0.00,meteobridge,2014-01-09 22:49:00,
2014-01-09 17:54:00,19.8,13.1,30.48,ESE,114,0.0,0.0,75,0.00,,,0.00,meteobridge,2014-01-09 22:54:00,
2014-01-09 17:56:00,19.8,13.1,30.48,ESE,114,0.0,0.0,75,0.00,,,0.00,meteobridge,2014-01-09 22:56:00,
2014-01-09 18:08:00,19.0,12.7,30.48,ESE,114,0.9,2.0,76,0.00,,,0.00,meteobridge,2014-01-09 23:08:00,
2014-01-09 18:18:00,19.2,12.9,30.47,ESE,114,0.0,0.0,76,0.00,,,0.00,meteobridge,2014-01-09 23:18:00,
2014-01-09 18:24:00,19.2,12.9,30.47,ESE,114,0.0,0.0,76,0.00,,,0.00,meteobridge,2014-01-09 23:24:00,
2014-01-09 18:29:00,19.0,12.7,30.47,ESE,113,0.0,0.0,76,0.00,,,0.00,meteobridge,2014-01-09 23:29:00,
2014-01-09 18:35:00,18.9,12.9,30.47,ESE,114,0.0,0.0,77,0.00,,,0.00,meteobridge,2014-01-09 23:35:00,
2014-01-09 18:40:00,18.9,12.9,30.47,ESE,114,0.0,0.0,77,0.00,,,0.00,meteobridge,2014-01-09 23:40:00,
2014-01-09 18:56:00,16.7,11.1,30.46,ESE,114,0.0,0.0,78,0.00,,,0.00,meteobridge,2014-01-09 23:56:00,
2014-01-09 19:06:00,16.0,10.9,30.45,ESE,114,0.0,0.0,80,0.00,,,0.00,meteobridge,2014-01-10 00:06:00,
2014-01-09 19:20:00,15.6,11.1,30.44,ESE,114,0.0,0.0,82,0.00,,,0.00,meteobridge,2014-01-10 00:20:00,
2014-01-09 19:27:00,15.6,11.1,30.44,ESE,114,0.0,0.0,82,0.00,,,0.00,meteobridge,2014-01-10 00:27:00,
2014-01-09 19:33:00,15.8,11.5,30.43,ESE,114,0.0,0.0,83,0.00,,,0.00,meteobridge,2014-01-10 00:33:00,
2014-01-09 19:39:00,15.8,11.5,30.43,ESE,114,0.0,0.0,83,0.00,,,0.00,meteobridge,2014-01-10 00:39:00,
2014-01-09 19:45:00,15.6,11.3,30.42,ESE,114,0.0,0.0,83,0.00,,,0.00,meteobridge,2014-01-10 00:45:00,
2014-01-09 19:51:00,15.3,11.1,30.42,ESE,114,0.0,0.0,83,0.00,,,0.00,meteobridge,2014-01-10 00:51:00,
2014-01-09 19:58:00,15.1,11.1,30.42,ESE,114,0.0,0.0,84,0.00,,,0.00,meteobridge,2014-01-10 00:58:00,
2014-01-09 20:04:00,15.1,11.1,30.42,ESE,114,0.0,0.0,84,0.00,,,0.00,meteobridge,2014-01-10 01:04:00,
2014-01-09 20:10:00,15.4,11.5,30.42,ESE,114,0.0,0.0,84,0.00,,,0.00,meteobridge,2014-01-10 01:10:00,
2014-01-09 20:16:00,15.6,11.7,30.41,ESE,114,0.0,0.0,84,0.00,,,0.00,meteobridge,2014-01-10 01:16:00,
2014-01-09 20:23:00,15.6,11.7,30.41,ESE,114,0.0,0.0,84,0.00,,,0.00,meteobridge,2014-01-10 01:23:00,
2014-01-09 20:29:00,16.2,12.2,30.41,ESE,114,0.9,2.0,84,0.00,,,0.00,meteobridge,2014-01-10 01:29:00,
2014-01-09 20:35:00,16.9,12.9,30.40,ESE,114,2.0,2.0,84,0.00,,,0.00,meteobridge,2014-01-10 01:35:00,
2014-01-09 20:41:00,16.9,12.6,30.40,ESE,114,0.0,0.0,83,0.00,,,0.00,meteobridge,2014-01-10 01:41:00,
2014-01-09 20:47:00,17.2,12.9,30.40,ESE,114,4.0,4.9,83,0.00,,,0.00,meteobridge,2014-01-10 01:47:00,
2014-01-09 20:53:00,18.7,14.2,30.40,SE,134,6.0,6.9,82,0.00,,,0.00,meteobridge,2014-01-10 01:53:00,
2014-01-09 20:59:00,19.6,14.4,30.40,SE,126,4.9,6.9,80,0.00,,,0.00,meteobridge,2014-01-10 01:59:00,
2014-01-09 21:05:00,20.1,14.7,30.39,SE,142,6.0,10.1,79,0.00,,,0.00,meteobridge,2014-01-10 02:05:00,
2014-01-09 21:11:00,20.8,15.1,30.39,SE,133,6.9,8.9,78,0.00,,,0.00,meteobridge,2014-01-10 02:11:00,
2014-01-09 21:17:00,21.2,15.1,30.39,SE,140,4.9,8.1,77,0.00,,,0.00,meteobridge,2014-01-10 02:17:00,
2014-01-09 21:23:00,21.2,14.9,30.39,SE,139,6.0,8.9,76,0.00,,,0.00,meteobridge,2014-01-10 02:23:00,
2014-01-09 21:29:00,21.4,15.1,30.38,SE,140,4.0,8.1,76,0.00,,,0.00,meteobridge,2014-01-10 02:29:00,
2014-01-09 21:35:00,21.4,15.1,30.38,ESE,116,6.9,8.1,76,0.00,,,0.00,meteobridge,2014-01-10 02:35:00,
2014-01-09 21:41:00,21.4,15.1,30.37,SE,138,6.9,11.0,76,0.00,,,0.00,meteobridge,2014-01-10 02:41:00,
2014-01-09 21:47:00,21.9,15.3,30.37,SE,136,6.9,10.1,75,0.00,,,0.00,meteobridge,2014-01-10 02:47:00,
2014-01-09 21:53:00,22.1,15.4,30.37,SE,135,6.9,11.0,75,0.00,,,0.00,meteobridge,2014-01-10 02:53:00,
2014-01-09 21:59:00,22.3,15.3,30.37,SSE,167,6.9,12.1,74,0.00,,,0.00,meteobridge,2014-01-10 02:59:00,
2014-01-09 22:05:00,22.5,15.4,30.37,ESE,114,4.9,12.1,74,0.00,,,0.00,meteobridge,2014-01-10 03:05:00,
2014-01-09 22:11:00,22.5,15.4,30.37,SSE,148,8.9,8.9,74,0.00,,,0.00,meteobridge,2014-01-10 03:11:00,
2014-01-09 22:17:00,22.6,15.6,30.37,SSE,152,8.9,11.0,74,0.00,,,0.00,meteobridge,2014-01-10 03:17:00,
2014-01-09 22:23:00,22.8,15.8,30.37,SE,136,6.0,10.1,74,0.00,,,0.00,meteobridge,2014-01-10 03:23:00,
2014-01-09 22:29:00,22.8,15.8,30.37,SE,134,4.9,6.9,74,0.00,,,0.00,meteobridge,2014-01-10 03:29:00,
2014-01-09 22:35:00,23.0,16.0,30.37,SE,138,0.0,6.0,74,0.00,,,0.00,meteobridge,2014-01-10 03:35:00,
2014-01-09 22:41:00,23.0,16.0,30.36,SSE,148,6.9,6.9,74,0.00,,,0.00,meteobridge,2014-01-10 03:41:00,
2014-01-09 22:48:00,22.8,16.2,30.36,SSE,148,0.0,0.9,75,0.00,,,0.00,meteobridge,2014-01-10 03:48:00,
2014-01-09 22:54:00,23.0,16.3,30.36,SE,142,4.9,6.0,75,0.00,,,0.00,meteobridge,2014-01-10 03:54:00,
2014-01-09 23:00:00,23.2,16.5,30.36,SE,142,2.0,4.9,75,0.00,,,0.00,meteobridge,2014-01-10 04:00:00,
2014-01-09 23:06:00,23.4,16.7,30.35,SE,134,4.9,6.9,75,0.00,,,0.00,meteobridge,2014-01-10 04:06:00,
2014-01-09 23:12:00,23.5,16.7,30.35,South,170,2.0,4.9,75,0.00,,,0.00,meteobridge,2014-01-10 04:12:00,
2014-01-09 23:18:00,23.7,16.9,30.35,SSE,160,0.9,4.0,75,0.00,,,0.00,meteobridge,2014-01-10 04:18:00,
2014-01-09 23:24:00,23.7,17.2,30.34,SE,140,2.0,4.9,76,0.00,,,0.00,meteobridge,2014-01-10 04:24:00,
2014-01-09 23:30:00,23.7,17.2,30.34,SE,146,4.0,6.0,76,0.00,,,0.00,meteobridge,2014-01-10 04:30:00,
2014-01-09 23:36:00,24.1,17.6,30.33,ESE,120,4.0,6.9,76,0.00,,,0.00,meteobridge,2014-01-10 04:36:00,
2014-01-09 23:42:00,24.3,17.8,30.33,SE,134,4.9,4.9,76,0.00,,,0.00,meteobridge,2014-01-10 04:42:00,
2014-01-09 23:48:00,24.3,17.8,30.33,SE,144,4.9,8.1,76,0.00,,,0.00,meteobridge,2014-01-10 04:48:00,
2014-01-09 23:54:00,24.4,18.0,30.33,SSE,148,2.0,4.0,76,0.00,,,0.00,meteobridge,2014-01-10 04:54:00,